McCarthy, AK

2:39 PM AKDT on July 04, 2015 (GMT -0800)
Nizina Road, Two Miles South of McCarthy | | Change Station
CLOSE
Current Station
Personal Weather Station
Location: Chitina, AK
Elevation: 1590 ft
Nearby Weather Stations

Elev 1590 ft 61.40 °N, 142.93 °W | Updated 27 seconds ago

Clear
Clear
75.2 °F
Feels Like 77 °F
N
1.4
Wind Variable Wind from NW
Gusts 0.0 mph

Today
High -- | Low -- °F
--% Chance of Precip.
Yesterday
High -- | Low -- °F
Precip. -- in
4:00 AM 11:10 PM
Waning Gibbous, 89% visible
Pressure 30.16 in
Visibility -9999.0 miles
Clouds Clear
Heat Index 77 °F
Dew Point 42 °F
Humidity 30%
Rainfall 0.00 in
Snow Depth Not available.
UV 8 out of 12
Pollen Not available.
Air Quality Not available.
Flu Activity Not available.
METAR PAGK 042153Z AUTO 15014G25KT CLR 21/05 A3017 RMK AO2 SLP211 T02110050 TSNO $

More Conditions Fewer Conditions

Pressure 30.16 in
Visibility -9999.0 miles
Clouds Clear
Heat Index 77 °F
Dew Point 42 °F
Humidity 30%
Rainfall 0.00 in
Snow Depth Not available.
UV 8 out of 12
Pollen Not available.
Air Quality Not available.
Flu Activity Not available.
METAR PAGK 042153Z AUTO 15014G25KT CLR 21/05 A3017 RMK AO2 SLP211 T02110050 TSNO $

More Conditions Fewer Conditions

10-Day Weather Forecast

×

Almanac

Astronomy

Jul. 04, 2015 Rise Set
Actual Time
Civil Twilight
Nautical Twilight
Astronomical Twilight
Moon
Length of Visible Light
Length of Day
Tomorrow will be .
, % of the Moon is Illuminated

Today's Extremes

State Highs State Lows

Community

WunderPhotos

Upload Photos

1,835,105 photos uploaded!

WunderBlogs® & News

Nearby

Air Quality

  Air Quality AQ Index Pollutant
Not available.

Snow Depth

Station Depth Elevation

Earthquake Activity

City Distance Mag. Time & Date
Minimum magnitude displayed is 2.5.

Coastal Water Temperatures

Place Temperature

Stations

Nearby Weather Stations

Station Location Temp. Windchill Dew Point Humidity Wind Precip. Elev Updated Type